sensor_id;sensor_type;location;lat;lon;timestamp;P1;durP1;ratioP1;P2;durP2;ratioP2
56667;SDS011;42542;48.360;10.958;2023-04-30T00:00:58;8.25;;;3.80;;
56667;SDS011;42542;48.360;10.958;2023-04-30T00:04:01;7.57;;;3.47;;
56667;SDS011;42542;48.360;10.958;2023-04-30T00:07:02;8.52;;;3.60;;
56667;SDS011;42542;48.360;10.958;2023-04-30T00:10:05;8.27;;;3.80;;
56667;SDS011;42542;48.360;10.958;2023-04-30T00:13:09;10.07;;;3.73;;
56667;SDS011;42542;48.360;10.958;2023-04-30T00:16:11;9.20;;;3.88;;
56667;SDS011;42542;48.360;10.958;2023-04-30T00:19:14;10.25;;;3.80;;
56667;SDS011;42542;48.360;10.958;2023-04-30T00:22:17;8.77;;;3.72;;
56667;SDS011;42542;48.360;10.958;2023-04-30T00:25:21;9.20;;;4.00;;
56667;SDS011;42542;48.360;10.958;2023-04-30T00:28:24;7.93;;;3.85;;
56667;SDS011;42542;48.360;10.958;2023-04-30T00:31:26;9.10;;;3.85;;
56667;SDS011;42542;48.360;10.958;2023-04-30T00:34:29;10.17;;;4.03;;
56667;SDS011;42542;48.360;10.958;2023-04-30T00:37:30;9.90;;;4.10;;
56667;SDS011;42542;48.360;10.958;2023-04-30T00:40:33;9.40;;;4.10;;
56667;SDS011;42542;48.360;10.958;2023-04-30T00:43:36;9.32;;;4.10;;
56667;SDS011;42542;48.360;10.958;2023-04-30T00:46:38;9.50;;;4.27;;
56667;SDS011;42542;48.360;10.958;2023-04-30T00:49:42;9.38;;;4.00;;
56667;SDS011;42542;48.360;10.958;2023-04-30T00:52:45;9.15;;;4.40;;
56667;SDS011;42542;48.360;10.958;2023-04-30T00:55:48;10.48;;;4.50;;
56667;SDS011;42542;48.360;10.958;2023-04-30T00:58:50;8.77;;;4.10;;
56667;SDS011;42542;48.360;10.958;2023-04-30T01:01:58;10.15;;;4.00;;
56667;SDS011;42542;48.360;10.958;2023-04-30T01:05:02;8.23;;;3.72;;
56667;SDS011;42542;48.360;10.958;2023-04-30T01:08:06;9.33;;;4.10;;
56667;SDS011;42542;48.360;10.958;2023-04-30T01:14:40;8.48;;;3.58;;
56667;SDS011;42542;48.360;10.958;2023-04-30T01:18:14;9.13;;;4.20;;
56667;SDS011;42542;48.360;10.958;2023-04-30T01:21:20;8.80;;;4.10;;
56667;SDS011;42542;48.360;10.958;2023-04-30T01:31:19;9.50;;;4.10;;
56667;SDS011;42542;48.360;10.958;2023-04-30T01:34:23;9.65;;;4.07;;
56667;SDS011;42542;48.360;10.958;2023-04-30T01:40:52;9.90;;;4.10;;
56667;SDS011;42542;48.360;10.958;2023-04-30T01:44:16;8.90;;;4.10;;
56667;SDS011;42542;48.360;10.958;2023-04-30T01:50:50;10.80;;;4.30;;
56667;SDS011;42542;48.360;10.958;2023-04-30T01:53:56;11.20;;;4.47;;
56667;SDS011;42542;48.360;10.958;2023-04-30T01:57:07;8.73;;;4.05;;
56667;SDS011;42542;48.360;10.958;2023-04-30T02:00:18;10.68;;;4.38;;
56667;SDS011;42542;48.360;10.958;2023-04-30T02:03:23;9.87;;;4.23;;
56667;SDS011;42542;48.360;10.958;2023-04-30T02:06:32;9.88;;;4.50;;
56667;SDS011;42542;48.360;10.958;2023-04-30T02:09:35;9.82;;;4.70;;
56667;SDS011;42542;48.360;10.958;2023-04-30T02:12:41;10.43;;;4.28;;
56667;SDS011;42542;48.360;10.958;2023-04-30T02:15:44;9.75;;;4.57;;
56667;SDS011;42542;48.360;10.958;2023-04-30T02:18:48;10.77;;;4.35;;
56667;SDS011;42542;48.360;10.958;2023-04-30T02:21:50;9.90;;;4.65;;
56667;SDS011;42542;48.360;10.958;2023-04-30T02:24:55;11.77;;;4.90;;
56667;SDS011;42542;48.360;10.958;2023-04-30T02:27:59;11.40;;;4.82;;
56667;SDS011;42542;48.360;10.958;2023-04-30T02:31:05;10.30;;;4.60;;
56667;SDS011;42542;48.360;10.958;2023-04-30T02:34:10;9.77;;;4.77;;
56667;SDS011;42542;48.360;10.958;2023-04-30T02:37:13;10.95;;;4.70;;
56667;SDS011;42542;48.360;10.958;2023-04-30T02:40:15;10.05;;;4.60;;
56667;SDS011;42542;48.360;10.958;2023-04-30T02:43:17;13.27;;;5.25;;
56667;SDS011;42542;48.360;10.958;2023-04-30T02:46:19;9.93;;;4.80;;
56667;SDS011;42542;48.360;10.958;2023-04-30T02:49:22;11.85;;;5.20;;
56667;SDS011;42542;48.360;10.958;2023-04-30T02:52:24;10.73;;;5.13;;
56667;SDS011;42542;48.360;10.958;2023-04-30T02:55:30;12.20;;;4.83;;
56667;SDS011;42542;48.360;10.958;2023-04-30T02:58:35;10.27;;;4.93;;
56667;SDS011;42542;48.360;10.958;2023-04-30T03:01:40;10.10;;;4.57;;
56667;SDS011;42542;48.360;10.958;2023-04-30T03:04:43;11.20;;;5.28;;
56667;SDS011;42542;48.360;10.958;2023-04-30T03:07:47;11.02;;;5.10;;
56667;SDS011;42542;48.360;10.958;2023-04-30T03:10:53;12.07;;;5.30;;
56667;SDS011;42542;48.360;10.958;2023-04-30T03:14:00;12.02;;;5.30;;
56667;SDS011;42542;48.360;10.958;2023-04-30T03:17:04;12.60;;;5.23;;
56667;SDS011;42542;48.360;10.958;2023-04-30T03:20:07;11.15;;;5.60;;
56667;SDS011;42542;48.360;10.958;2023-04-30T03:23:13;12.57;;;5.40;;
56667;SDS011;42542;48.360;10.958;2023-04-30T03:26:16;11.90;;;5.57;;
56667;SDS011;42542;48.360;10.958;2023-04-30T03:29:17;11.60;;;5.60;;
56667;SDS011;42542;48.360;10.958;2023-04-30T03:32:21;12.52;;;5.72;;
56667;SDS011;42542;48.360;10.958;2023-04-30T03:35:39;12.57;;;5.70;;
56667;SDS011;42542;48.360;10.958;2023-04-30T03:38:41;14.40;;;5.45;;
56667;SDS011;42542;48.360;10.958;2023-04-30T03:41:44;11.93;;;5.72;;
56667;SDS011;42542;48.360;10.958;2023-04-30T03:44:46;12.55;;;5.63;;
56667;SDS011;42542;48.360;10.958;2023-04-30T03:47:49;12.40;;;5.40;;
56667;SDS011;42542;48.360;10.958;2023-04-30T03:50:53;11.90;;;5.93;;
56667;SDS011;42542;48.360;10.958;2023-04-30T03:53:57;12.50;;;5.90;;
56667;SDS011;42542;48.360;10.958;2023-04-30T03:57:01;13.00;;;6.17;;
56667;SDS011;42542;48.360;10.958;2023-04-30T04:00:08;10.80;;;5.40;;
56667;SDS011;42542;48.360;10.958;2023-04-30T04:03:18;13.32;;;6.15;;
56667;SDS011;42542;48.360;10.958;2023-04-30T04:06:35;12.25;;;5.47;;
56667;SDS011;42542;48.360;10.958;2023-04-30T04:09:39;12.43;;;5.55;;
56667;SDS011;42542;48.360;10.958;2023-04-30T04:12:45;11.50;;;5.82;;
56667;SDS011;42542;48.360;10.958;2023-04-30T04:15:47;13.48;;;5.80;;
56667;SDS011;42542;48.360;10.958;2023-04-30T04:18:51;12.17;;;5.90;;
56667;SDS011;42542;48.360;10.958;2023-04-30T04:21:55;13.73;;;5.82;;
56667;SDS011;42542;48.360;10.958;2023-04-30T04:25:10;12.68;;;5.43;;
56667;SDS011;42542;48.360;10.958;2023-04-30T04:28:18;13.87;;;6.30;;
56667;SDS011;42542;48.360;10.958;2023-04-30T04:31:20;14.02;;;6.35;;
56667;SDS011;42542;48.360;10.958;2023-04-30T04:34:24;13.73;;;6.25;;
56667;SDS011;42542;48.360;10.958;2023-04-30T04:37:28;14.52;;;6.45;;
56667;SDS011;42542;48.360;10.958;2023-04-30T04:40:40;12.93;;;6.13;;
56667;SDS011;42542;48.360;10.958;2023-04-30T04:43:43;13.15;;;6.00;;
56667;SDS011;42542;48.360;10.958;2023-04-30T04:46:44;13.55;;;6.20;;
56667;SDS011;42542;48.360;10.958;2023-04-30T04:49:47;13.43;;;6.20;;
56667;SDS011;42542;48.360;10.958;2023-04-30T04:52:49;15.00;;;6.60;;
56667;SDS011;42542;48.360;10.958;2023-04-30T04:55:51;12.90;;;5.63;;
56667;SDS011;42542;48.360;10.958;2023-04-30T04:58:53;12.87;;;6.03;;
56667;SDS011;42542;48.360;10.958;2023-04-30T05:01:55;13.02;;;5.93;;
56667;SDS011;42542;48.360;10.958;2023-04-30T05:04:58;13.80;;;6.60;;
56667;SDS011;42542;48.360;10.958;2023-04-30T05:08:00;12.75;;;5.88;;
56667;SDS011;42542;48.360;10.958;2023-04-30T05:11:03;13.47;;;6.57;;
56667;SDS011;42542;48.360;10.958;2023-04-30T05:14:04;13.52;;;6.20;;
56667;SDS011;42542;48.360;10.958;2023-04-30T05:17:08;14.35;;;6.40;;
56667;SDS011;42542;48.360;10.958;2023-04-30T05:20:10;14.97;;;6.67;;
56667;SDS011;42542;48.360;10.958;2023-04-30T05:23:13;12.98;;;6.32;;
56667;SDS011;42542;48.360;10.958;2023-04-30T05:26:15;13.90;;;6.70;;
56667;SDS011;42542;48.360;10.958;2023-04-30T05:29:17;13.45;;;6.75;;
56667;SDS011;42542;48.360;10.958;2023-04-30T05:32:23;14.45;;;6.50;;
56667;SDS011;42542;48.360;10.958;2023-04-30T05:35:26;14.55;;;7.10;;
56667;SDS011;42542;48.360;10.958;2023-04-30T05:38:28;14.85;;;7.28;;
56667;SDS011;42542;48.360;10.958;2023-04-30T05:41:29;13.67;;;6.43;;
56667;SDS011;42542;48.360;10.958;2023-04-30T05:44:32;14.00;;;6.97;;
56667;SDS011;42542;48.360;10.958;2023-04-30T05:47:34;14.55;;;7.18;;
56667;SDS011;42542;48.360;10.958;2023-04-30T05:50:36;15.43;;;8.00;;
56667;SDS011;42542;48.360;10.958;2023-04-30T05:53:39;15.13;;;7.30;;
56667;SDS011;42542;48.360;10.958;2023-04-30T05:56:40;15.68;;;6.90;;
56667;SDS011;42542;48.360;10.958;2023-04-30T05:59:43;14.65;;;7.38;;
56667;SDS011;42542;48.360;10.958;2023-04-30T06:02:46;14.00;;;6.93;;
56667;SDS011;42542;48.360;10.958;2023-04-30T06:05:48;15.57;;;7.20;;
56667;SDS011;42542;48.360;10.958;2023-04-30T06:08:50;14.05;;;6.75;;
56667;SDS011;42542;48.360;10.958;2023-04-30T06:11:52;13.73;;;6.97;;
56667;SDS011;42542;48.360;10.958;2023-04-30T06:14:56;15.00;;;7.45;;
56667;SDS011;42542;48.360;10.958;2023-04-30T06:17:58;15.93;;;7.60;;
56667;SDS011;42542;48.360;10.958;2023-04-30T06:21:00;15.20;;;7.20;;
56667;SDS011;42542;48.360;10.958;2023-04-30T06:24:02;14.43;;;6.88;;
56667;SDS011;42542;48.360;10.958;2023-04-30T06:27:04;16.58;;;7.40;;
56667;SDS011;42542;48.360;10.958;2023-04-30T06:30:06;14.27;;;7.05;;
56667;SDS011;42542;48.360;10.958;2023-04-30T06:33:09;15.43;;;7.20;;
56667;SDS011;42542;48.360;10.958;2023-04-30T06:36:12;13.25;;;6.50;;
56667;SDS011;42542;48.360;10.958;2023-04-30T06:39:16;15.00;;;7.05;;
56667;SDS011;42542;48.360;10.958;2023-04-30T06:42:18;13.82;;;6.38;;
56667;SDS011;42542;48.360;10.958;2023-04-30T06:45:20;14.52;;;7.10;;
56667;SDS011;42542;48.360;10.958;2023-04-30T06:48:22;14.93;;;7.03;;
56667;SDS011;42542;48.360;10.958;2023-04-30T06:51:24;16.65;;;6.90;;
56667;SDS011;42542;48.360;10.958;2023-04-30T06:54:29;13.73;;;6.80;;
56667;SDS011;42542;48.360;10.958;2023-04-30T06:57:33;13.07;;;6.68;;
56667;SDS011;42542;48.360;10.958;2023-04-30T07:00:37;13.13;;;6.85;;
56667;SDS011;42542;48.360;10.958;2023-04-30T07:03:42;13.25;;;6.78;;
56667;SDS011;42542;48.360;10.958;2023-04-30T07:06:48;12.67;;;6.60;;
56667;SDS011;42542;48.360;10.958;2023-04-30T07:09:51;13.88;;;6.43;;
56667;SDS011;42542;48.360;10.958;2023-04-30T07:12:54;12.45;;;6.40;;
56667;SDS011;42542;48.360;10.958;2023-04-30T07:15:56;14.68;;;6.53;;
56667;SDS011;42542;48.360;10.958;2023-04-30T07:19:00;11.60;;;5.95;;
56667;SDS011;42542;48.360;10.958;2023-04-30T07:22:02;12.43;;;6.28;;
56667;SDS011;42542;48.360;10.958;2023-04-30T07:25:05;12.65;;;6.30;;
56667;SDS011;42542;48.360;10.958;2023-04-30T07:28:07;11.93;;;6.13;;
56667;SDS011;42542;48.360;10.958;2023-04-30T07:31:08;11.50;;;6.07;;
56667;SDS011;42542;48.360;10.958;2023-04-30T07:34:23;10.70;;;5.55;;
56667;SDS011;42542;48.360;10.958;2023-04-30T07:37:29;13.30;;;5.88;;
56667;SDS011;42542;48.360;10.958;2023-04-30T07:40:50;12.23;;;5.53;;
56667;SDS011;42542;48.360;10.958;2023-04-30T07:43:54;11.15;;;5.65;;
56667;SDS011;42542;48.360;10.958;2023-04-30T07:47:07;12.32;;;5.50;;
56667;SDS011;42542;48.360;10.958;2023-04-30T07:50:37;11.00;;;5.43;;
56667;SDS011;42542;48.360;10.958;2023-04-30T07:53:42;11.00;;;5.37;;
56667;SDS011;42542;48.360;10.958;2023-04-30T07:56:48;10.32;;;5.35;;
56667;SDS011;42542;48.360;10.958;2023-04-30T07:59:53;10.77;;;5.10;;
56667;SDS011;42542;48.360;10.958;2023-04-30T08:02:56;10.85;;;4.97;;
56667;SDS011;42542;48.360;10.958;2023-04-30T08:05:59;11.40;;;5.17;;
56667;SDS011;42542;48.360;10.958;2023-04-30T08:09:01;9.90;;;4.85;;
56667;SDS011;42542;48.360;10.958;2023-04-30T08:12:06;9.52;;;4.60;;
56667;SDS011;42542;48.360;10.958;2023-04-30T08:15:16;10.63;;;4.68;;
56667;SDS011;42542;48.360;10.958;2023-04-30T08:18:22;9.10;;;4.60;;
56667;SDS011;42542;48.360;10.958;2023-04-30T08:21:24;11.02;;;4.75;;
56667;SDS011;42542;48.360;10.958;2023-04-30T08:24:26;9.55;;;4.75;;
56667;SDS011;42542;48.360;10.958;2023-04-30T08:27:29;9.98;;;4.75;;
56667;SDS011;42542;48.360;10.958;2023-04-30T08:30:32;9.77;;;4.90;;
56667;SDS011;42542;48.360;10.958;2023-04-30T08:33:34;9.30;;;4.55;;
56667;SDS011;42542;48.360;10.958;2023-04-30T08:36:37;9.43;;;4.65;;
56667;SDS011;42542;48.360;10.958;2023-04-30T08:39:41;9.20;;;4.30;;
56667;SDS011;42542;48.360;10.958;2023-04-30T08:42:49;9.52;;;4.40;;
56667;SDS011;42542;48.360;10.958;2023-04-30T08:46:07;8.63;;;4.30;;
56667;SDS011;42542;48.360;10.958;2023-04-30T08:49:09;9.38;;;4.50;;
56667;SDS011;42542;48.360;10.958;2023-04-30T08:52:12;8.98;;;4.22;;
56667;SDS011;42542;48.360;10.958;2023-04-30T08:55:14;9.75;;;4.63;;
56667;SDS011;42542;48.360;10.958;2023-04-30T08:58:17;9.57;;;4.23;;
56667;SDS011;42542;48.360;10.958;2023-04-30T09:01:19;10.02;;;4.43;;
56667;SDS011;42542;48.360;10.958;2023-04-30T09:04:22;11.30;;;4.68;;
56667;SDS011;42542;48.360;10.958;2023-04-30T09:07:25;8.23;;;4.20;;
56667;SDS011;42542;48.360;10.958;2023-04-30T09:10:33;8.30;;;4.17;;
56667;SDS011;42542;48.360;10.958;2023-04-30T09:13:40;11.98;;;4.75;;
56667;SDS011;42542;48.360;10.958;2023-04-30T09:16:49;8.65;;;3.92;;
56667;SDS011;42542;48.360;10.958;2023-04-30T09:19:53;9.93;;;4.43;;
56667;SDS011;42542;48.360;10.958;2023-04-30T09:23:07;9.10;;;4.30;;
56667;SDS011;42542;48.360;10.958;2023-04-30T09:26:16;8.77;;;4.23;;
56667;SDS011;42542;48.360;10.958;2023-04-30T09:29:31;8.13;;;3.85;;
56667;SDS011;42542;48.360;10.958;2023-04-30T09:32:55;8.82;;;4.20;;
56667;SDS011;42542;48.360;10.958;2023-04-30T09:35:59;9.30;;;4.30;;
56667;SDS011;42542;48.360;10.958;2023-04-30T09:39:10;12.10;;;4.22;;
56667;SDS011;42542;48.360;10.958;2023-04-30T09:42:17;8.27;;;4.10;;
56667;SDS011;42542;48.360;10.958;2023-04-30T09:45:20;7.97;;;4.00;;
56667;SDS011;42542;48.360;10.958;2023-04-30T09:48:24;7.90;;;3.85;;
56667;SDS011;42542;48.360;10.958;2023-04-30T09:51:31;7.60;;;3.97;;
56667;SDS011;42542;48.360;10.958;2023-04-30T09:54:35;8.93;;;3.85;;
56667;SDS011;42542;48.360;10.958;2023-04-30T09:57:39;7.60;;;3.80;;
56667;SDS011;42542;48.360;10.958;2023-04-30T10:00:42;10.23;;;4.00;;
56667;SDS011;42542;48.360;10.958;2023-04-30T10:03:53;9.57;;;4.40;;
56667;SDS011;42542;48.360;10.958;2023-04-30T10:06:56;7.70;;;3.88;;
56667;SDS011;42542;48.360;10.958;2023-04-30T10:10:03;8.67;;;3.80;;
56667;SDS011;42542;48.360;10.958;2023-04-30T10:13:10;8.18;;;3.78;;
56667;SDS011;42542;48.360;10.958;2023-04-30T10:19:45;7.82;;;3.90;;
56667;SDS011;42542;48.360;10.958;2023-04-30T10:22:50;7.70;;;3.92;;
56667;SDS011;42542;48.360;10.958;2023-04-30T10:25:56;7.67;;;3.73;;
56667;SDS011;42542;48.360;10.958;2023-04-30T10:28:59;7.57;;;3.50;;
56667;SDS011;42542;48.360;10.958;2023-04-30T10:32:03;8.38;;;4.20;;
56667;SDS011;42542;48.360;10.958;2023-04-30T10:35:18;8.30;;;3.83;;
56667;SDS011;42542;48.360;10.958;2023-04-30T10:38:27;8.63;;;3.80;;
56667;SDS011;42542;48.360;10.958;2023-04-30T10:41:36;7.57;;;3.70;;
56667;SDS011;42542;48.360;10.958;2023-04-30T10:44:38;8.15;;;3.50;;
56667;SDS011;42542;48.360;10.958;2023-04-30T10:47:43;7.00;;;3.50;;
56667;SDS011;42542;48.360;10.958;2023-04-30T10:50:49;7.63;;;3.72;;
56667;SDS011;42542;48.360;10.958;2023-04-30T10:53:53;7.17;;;3.40;;
56667;SDS011;42542;48.360;10.958;2023-04-30T10:57:10;7.72;;;3.40;;
56667;SDS011;42542;48.360;10.958;2023-04-30T11:00:24;7.35;;;3.50;;
56667;SDS011;42542;48.360;10.958;2023-04-30T11:03:28;7.00;;;3.38;;
56667;SDS011;42542;48.360;10.958;2023-04-30T11:09:53;7.13;;;3.40;;
56667;SDS011;42542;48.360;10.958;2023-04-30T11:13:02;6.90;;;3.20;;
56667;SDS011;42542;48.360;10.958;2023-04-30T11:16:07;7.20;;;3.38;;
56667;SDS011;42542;48.360;10.958;2023-04-30T11:19:09;7.05;;;3.28;;
56667;SDS011;42542;48.360;10.958;2023-04-30T11:22:17;7.35;;;3.30;;
56667;SDS011;42542;48.360;10.958;2023-04-30T11:25:31;7.87;;;3.47;;
56667;SDS011;42542;48.360;10.958;2023-04-30T11:28:49;7.53;;;3.70;;
56667;SDS011;42542;48.360;10.958;2023-04-30T11:32:03;7.15;;;3.63;;
56667;SDS011;42542;48.360;10.958;2023-04-30T11:35:05;6.15;;;2.80;;
56667;SDS011;42542;48.360;10.958;2023-04-30T11:38:11;7.72;;;3.38;;
56667;SDS011;42542;48.360;10.958;2023-04-30T11:41:15;7.00;;;3.50;;
56667;SDS011;42542;48.360;10.958;2023-04-30T11:44:21;6.88;;;3.30;;
56667;SDS011;42542;48.360;10.958;2023-04-30T11:47:37;7.03;;;3.20;;
56667;SDS011;42542;48.360;10.958;2023-04-30T11:50:44;7.70;;;3.40;;
56667;SDS011;42542;48.360;10.958;2023-04-30T11:53:47;6.33;;;3.00;;
56667;SDS011;42542;48.360;10.958;2023-04-30T11:56:50;6.38;;;3.10;;
56667;SDS011;42542;48.360;10.958;2023-04-30T11:59:53;8.00;;;3.30;;
56667;SDS011;42542;48.360;10.958;2023-04-30T12:02:58;7.32;;;3.00;;
56667;SDS011;42542;48.360;10.958;2023-04-30T12:06:05;6.30;;;3.10;;
56667;SDS011;42542;48.360;10.958;2023-04-30T12:09:07;6.53;;;3.20;;
56667;SDS011;42542;48.360;10.958;2023-04-30T12:12:12;6.90;;;3.35;;
56667;SDS011;42542;48.360;10.958;2023-04-30T12:15:15;7.57;;;3.63;;
56667;SDS011;42542;48.360;10.958;2023-04-30T12:18:18;7.80;;;3.40;;
56667;SDS011;42542;48.360;10.958;2023-04-30T12:21:20;7.72;;;3.33;;
56667;SDS011;42542;48.360;10.958;2023-04-30T12:24:24;8.03;;;3.47;;
56667;SDS011;42542;48.360;10.958;2023-04-30T12:27:32;7.03;;;3.40;;
56667;SDS011;42542;48.360;10.958;2023-04-30T12:30:36;6.47;;;3.08;;
56667;SDS011;42542;48.360;10.958;2023-04-30T12:33:42;7.50;;;3.38;;
56667;SDS011;42542;48.360;10.958;2023-04-30T12:36:45;7.47;;;3.30;;
56667;SDS011;42542;48.360;10.958;2023-04-30T12:39:49;8.40;;;3.30;;
56667;SDS011;42542;48.360;10.958;2023-04-30T12:42:58;6.53;;;3.13;;
56667;SDS011;42542;48.360;10.958;2023-04-30T12:46:06;6.47;;;3.00;;
56667;SDS011;42542;48.360;10.958;2023-04-30T12:49:10;6.97;;;3.05;;
56667;SDS011;42542;48.360;10.958;2023-04-30T12:52:13;6.13;;;2.78;;
56667;SDS011;42542;48.360;10.958;2023-04-30T12:55:19;6.93;;;3.03;;
56667;SDS011;42542;48.360;10.958;2023-04-30T12:58:24;6.15;;;2.97;;
56667;SDS011;42542;48.360;10.958;2023-04-30T13:01:31;6.65;;;2.83;;
56667;SDS011;42542;48.360;10.958;2023-04-30T13:04:38;6.38;;;2.90;;
56667;SDS011;42542;48.360;10.958;2023-04-30T13:07:42;6.57;;;2.83;;
56667;SDS011;42542;48.360;10.958;2023-04-30T13:10:45;6.20;;;3.03;;
56667;SDS011;42542;48.360;10.958;2023-04-30T13:13:52;6.78;;;3.10;;
56667;SDS011;42542;48.360;10.958;2023-04-30T13:16:56;6.22;;;2.95;;
56667;SDS011;42542;48.360;10.958;2023-04-30T13:19:59;7.40;;;3.05;;
56667;SDS011;42542;48.360;10.958;2023-04-30T13:23:01;7.07;;;3.00;;
56667;SDS011;42542;48.360;10.958;2023-04-30T13:26:03;7.20;;;3.10;;
56667;SDS011;42542;48.360;10.958;2023-04-30T13:29:05;6.28;;;2.70;;
56667;SDS011;42542;48.360;10.958;2023-04-30T13:32:07;6.38;;;2.85;;
56667;SDS011;42542;48.360;10.958;2023-04-30T13:35:10;6.85;;;2.72;;
56667;SDS011;42542;48.360;10.958;2023-04-30T13:38:13;6.80;;;3.10;;
56667;SDS011;42542;48.360;10.958;2023-04-30T13:41:16;6.43;;;2.97;;
56667;SDS011;42542;48.360;10.958;2023-04-30T13:44:20;6.82;;;3.00;;
56667;SDS011;42542;48.360;10.958;2023-04-30T13:47:23;6.43;;;2.92;;
56667;SDS011;42542;48.360;10.958;2023-04-30T13:50:27;5.95;;;2.78;;
56667;SDS011;42542;48.360;10.958;2023-04-30T13:53:29;7.25;;;2.80;;
56667;SDS011;42542;48.360;10.958;2023-04-30T13:56:31;6.33;;;2.60;;
56667;SDS011;42542;48.360;10.958;2023-04-30T13:59:35;5.65;;;2.50;;
56667;SDS011;42542;48.360;10.958;2023-04-30T14:02:40;6.55;;;2.85;;
56667;SDS011;42542;48.360;10.958;2023-04-30T14:05:43;6.07;;;2.80;;
56667;SDS011;42542;48.360;10.958;2023-04-30T14:08:45;6.07;;;2.75;;
56667;SDS011;42542;48.360;10.958;2023-04-30T14:11:48;6.03;;;2.90;;
56667;SDS011;42542;48.360;10.958;2023-04-30T14:14:53;6.47;;;3.00;;
56667;SDS011;42542;48.360;10.958;2023-04-30T14:17:56;5.60;;;2.60;;
56667;SDS011;42542;48.360;10.958;2023-04-30T14:20:58;6.75;;;3.10;;
56667;SDS011;42542;48.360;10.958;2023-04-30T14:24:00;6.60;;;2.80;;
56667;SDS011;42542;48.360;10.958;2023-04-30T14:27:02;5.97;;;3.00;;
56667;SDS011;42542;48.360;10.958;2023-04-30T14:30:05;6.07;;;2.70;;
56667;SDS011;42542;48.360;10.958;2023-04-30T14:33:09;5.97;;;2.80;;
56667;SDS011;42542;48.360;10.958;2023-04-30T14:36:21;6.57;;;2.90;;
56667;SDS011;42542;48.360;10.958;2023-04-30T14:39:24;6.40;;;3.10;;
56667;SDS011;42542;48.360;10.958;2023-04-30T14:42:29;6.30;;;3.10;;
56667;SDS011;42542;48.360;10.958;2023-04-30T14:45:31;6.80;;;3.05;;
56667;SDS011;42542;48.360;10.958;2023-04-30T14:48:35;6.97;;;2.75;;
56667;SDS011;42542;48.360;10.958;2023-04-30T14:51:37;5.93;;;2.60;;
56667;SDS011;42542;48.360;10.958;2023-04-30T14:54:39;6.32;;;2.65;;
56667;SDS011;42542;48.360;10.958;2023-04-30T14:57:42;6.07;;;2.73;;
56667;SDS011;42542;48.360;10.958;2023-04-30T15:00:45;5.97;;;2.90;;
56667;SDS011;42542;48.360;10.958;2023-04-30T15:03:49;5.90;;;2.90;;
56667;SDS011;42542;48.360;10.958;2023-04-30T15:06:52;6.57;;;2.88;;
56667;SDS011;42542;48.360;10.958;2023-04-30T15:09:55;6.22;;;3.10;;
56667;SDS011;42542;48.360;10.958;2023-04-30T15:13:01;5.97;;;3.07;;
56667;SDS011;42542;48.360;10.958;2023-04-30T15:16:06;10.30;;;4.10;;
56667;SDS011;42542;48.360;10.958;2023-04-30T15:19:08;7.28;;;3.53;;
56667;SDS011;42542;48.360;10.958;2023-04-30T15:22:11;7.55;;;3.83;;
56667;SDS011;42542;48.360;10.958;2023-04-30T15:25:15;6.57;;;3.30;;
56667;SDS011;42542;48.360;10.958;2023-04-30T15:28:18;7.90;;;3.00;;
56667;SDS011;42542;48.360;10.958;2023-04-30T15:31:20;7.68;;;2.70;;
56667;SDS011;42542;48.360;10.958;2023-04-30T15:34:24;12.27;;;6.10;;
56667;SDS011;42542;48.360;10.958;2023-04-30T15:37:27;7.57;;;4.00;;
56667;SDS011;42542;48.360;10.958;2023-04-30T15:40:29;6.28;;;2.83;;
56667;SDS011;42542;48.360;10.958;2023-04-30T15:43:34;5.80;;;2.63;;
56667;SDS011;42542;48.360;10.958;2023-04-30T15:46:35;6.97;;;2.80;;
56667;SDS011;42542;48.360;10.958;2023-04-30T15:49:38;6.65;;;2.80;;
56667;SDS011;42542;48.360;10.958;2023-04-30T15:52:42;6.03;;;3.00;;
56667;SDS011;42542;48.360;10.958;2023-04-30T15:55:47;6.30;;;2.90;;
56667;SDS011;42542;48.360;10.958;2023-04-30T15:58:58;6.43;;;2.90;;
56667;SDS011;42542;48.360;10.958;2023-04-30T16:01:59;6.78;;;3.00;;
56667;SDS011;42542;48.360;10.958;2023-04-30T16:05:01;6.70;;;3.08;;
56667;SDS011;42542;48.360;10.958;2023-04-30T16:08:04;6.30;;;3.10;;
56667;SDS011;42542;48.360;10.958;2023-04-30T16:11:08;6.88;;;3.30;;
56667;SDS011;42542;48.360;10.958;2023-04-30T16:14:11;8.43;;;3.13;;
56667;SDS011;42542;48.360;10.958;2023-04-30T16:17:15;8.05;;;3.30;;
56667;SDS011;42542;48.360;10.958;2023-04-30T16:20:17;6.00;;;2.97;;
56667;SDS011;42542;48.360;10.958;2023-04-30T16:23:21;7.80;;;3.10;;
56667;SDS011;42542;48.360;10.958;2023-04-30T16:26:23;6.80;;;3.05;;
56667;SDS011;42542;48.360;10.958;2023-04-30T16:29:26;6.30;;;2.90;;
56667;SDS011;42542;48.360;10.958;2023-04-30T16:32:28;5.80;;;2.60;;
56667;SDS011;42542;48.360;10.958;2023-04-30T16:35:32;6.65;;;3.10;;
56667;SDS011;42542;48.360;10.958;2023-04-30T16:38:35;6.30;;;2.90;;
56667;SDS011;42542;48.360;10.958;2023-04-30T16:41:37;6.57;;;3.10;;
56667;SDS011;42542;48.360;10.958;2023-04-30T16:44:39;6.70;;;2.93;;
56667;SDS011;42542;48.360;10.958;2023-04-30T16:47:43;7.10;;;3.08;;
56667;SDS011;42542;48.360;10.958;2023-04-30T16:50:47;6.28;;;2.90;;
56667;SDS011;42542;48.360;10.958;2023-04-30T16:53:49;6.15;;;2.90;;
56667;SDS011;42542;48.360;10.958;2023-04-30T16:56:53;7.38;;;2.75;;
56667;SDS011;42542;48.360;10.958;2023-04-30T16:59:58;7.30;;;2.80;;
56667;SDS011;42542;48.360;10.958;2023-04-30T17:03:03;5.85;;;2.60;;
56667;SDS011;42542;48.360;10.958;2023-04-30T17:06:07;5.82;;;2.80;;
56667;SDS011;42542;48.360;10.958;2023-04-30T17:09:12;6.55;;;3.20;;
56667;SDS011;42542;48.360;10.958;2023-04-30T17:12:18;6.75;;;2.90;;
56667;SDS011;42542;48.360;10.958;2023-04-30T17:15:20;6.33;;;2.97;;
56667;SDS011;42542;48.360;10.958;2023-04-30T17:18:26;6.22;;;2.55;;
56667;SDS011;42542;48.360;10.958;2023-04-30T17:21:29;6.60;;;2.92;;
56667;SDS011;42542;48.360;10.958;2023-04-30T17:24:33;8.07;;;3.10;;
56667;SDS011;42542;48.360;10.958;2023-04-30T17:27:36;6.70;;;2.90;;
56667;SDS011;42542;48.360;10.958;2023-04-30T17:30:41;6.57;;;2.80;;
56667;SDS011;42542;48.360;10.958;2023-04-30T17:33:46;6.53;;;2.90;;
56667;SDS011;42542;48.360;10.958;2023-04-30T17:36:47;9.10;;;3.33;;
56667;SDS011;42542;48.360;10.958;2023-04-30T17:39:50;8.68;;;2.88;;
56667;SDS011;42542;48.360;10.958;2023-04-30T17:42:52;6.75;;;3.13;;
56667;SDS011;42542;48.360;10.958;2023-04-30T17:45:54;10.17;;;4.10;;
56667;SDS011;42542;48.360;10.958;2023-04-30T17:48:57;7.07;;;3.30;;
56667;SDS011;42542;48.360;10.958;2023-04-30T17:52:02;6.25;;;2.97;;
56667;SDS011;42542;48.360;10.958;2023-04-30T17:55:06;7.40;;;3.30;;
56667;SDS011;42542;48.360;10.958;2023-04-30T17:58:10;6.88;;;3.22;;
56667;SDS011;42542;48.360;10.958;2023-04-30T18:01:12;7.03;;;3.37;;
56667;SDS011;42542;48.360;10.958;2023-04-30T18:04:14;7.55;;;3.70;;
56667;SDS011;42542;48.360;10.958;2023-04-30T18:07:21;11.55;;;3.60;;
56667;SDS011;42542;48.360;10.958;2023-04-30T18:10:22;7.53;;;3.47;;
56667;SDS011;42542;48.360;10.958;2023-04-30T18:13:24;8.90;;;4.57;;
56667;SDS011;42542;48.360;10.958;2023-04-30T18:16:27;10.20;;;5.20;;
56667;SDS011;42542;48.360;10.958;2023-04-30T18:19:29;8.73;;;4.68;;
56667;SDS011;42542;48.360;10.958;2023-04-30T18:22:32;9.07;;;4.18;;
56667;SDS011;42542;48.360;10.958;2023-04-30T18:25:34;8.07;;;3.70;;
56667;SDS011;42542;48.360;10.958;2023-04-30T18:28:37;8.10;;;3.60;;
56667;SDS011;42542;48.360;10.958;2023-04-30T18:31:39;7.97;;;3.40;;
56667;SDS011;42542;48.360;10.958;2023-04-30T18:34:40;7.57;;;3.75;;